createdAt,value
2022-11-08T00:00:06.409Z,94800.06
2022-11-08T00:02:33.124Z,94801.69
2022-11-08T00:05:18.416Z,94802.16
2022-11-08T00:08:03.520Z,94794.78
2022-11-08T00:10:48.637Z,94791.91
2022-11-08T00:13:33.884Z,94779.50
2022-11-08T00:16:01.576Z,94785.88
2022-11-08T00:18:28.115Z,94780.66
2022-11-08T00:20:54.679Z,94771.81
2022-11-08T00:23:21.209Z,94769.69
2022-11-08T00:25:53.856Z,94767.81
2022-11-08T00:28:20.801Z,94773.91
2022-11-08T00:30:47.327Z,94757.97
2022-11-08T00:33:13.992Z,94765.09
2022-11-08T00:35:40.529Z,94760.78
2022-11-08T00:38:07.222Z,94757.44
2022-11-08T00:40:34.739Z,94752.22
2022-11-08T00:43:01.289Z,94755.31
2022-11-08T00:45:27.842Z,94750.09
2022-11-08T00:47:54.369Z,94749.34
2022-11-08T00:50:21.086Z,94749.53
2022-11-08T00:52:47.647Z,94744.31
2022-11-08T00:55:14.161Z,94756.41
2022-11-08T00:57:58.445Z,94751.16
2022-11-08T01:00:27.019Z,94746.84
2022-11-08T01:03:13.605Z,94753.53
2022-11-08T01:05:40.265Z,94755.16
2022-11-08T01:08:06.805Z,94747.75
2022-11-08T01:10:33.416Z,94737.31
2022-11-08T01:12:59.961Z,94739.66
2022-11-08T01:15:26.805Z,94737.50
2022-11-08T01:17:53.583Z,94733.91
2022-11-08T01:20:20.182Z,94741.03
2022-11-08T01:22:46.744Z,94731.03
2022-11-08T01:25:13.273Z,94741.94
2022-11-08T01:27:39.792Z,94731.94
2022-11-08T01:30:07.045Z,94731.66
2022-11-08T01:32:33.684Z,94736.19
2022-11-08T01:35:00.276Z,94731.41
2022-11-08T01:37:26.806Z,94719.28
2022-11-08T01:39:54.049Z,94714.06
2022-11-08T01:42:31.851Z,94710.00
2022-11-08T01:45:07.801Z,94711.63
2022-11-08T01:47:34.615Z,94704.22
2022-11-08T01:50:07.844Z,94703.97
2022-11-08T01:52:43.533Z,94699.91
2022-11-08T01:55:44.811Z,94693.28
2022-11-08T01:58:17.802Z,94694.19
2022-11-08T02:00:44.898Z,94689.88
2022-11-08T02:03:16.319Z,94686.81
2022-11-08T02:05:42.886Z,94688.41
2022-11-08T02:08:20.049Z,94692.91
2022-11-08T02:10:49.974Z,94685.53
2022-11-08T02:13:23.640Z,94685.31
2022-11-08T02:15:50.491Z,94678.63
2022-11-08T02:18:19.703Z,94673.13
2022-11-08T02:21:16.612Z,94677.63
2022-11-08T02:23:55.443Z,94669.53
2022-11-08T02:26:29.849Z,94671.16
2022-11-08T02:28:56.578Z,94667.09
2022-11-08T02:31:23.201Z,94665.69
2022-11-08T02:33:50.351Z,94668.03
2022-11-08T02:36:24.622Z,94671.53
2022-11-08T02:38:54.485Z,94664.44
2022-11-08T02:41:21.146Z,94667.03
2022-11-08T02:43:47.739Z,94662.25
2022-11-08T02:46:14.595Z,94658.22
2022-11-08T02:48:41.186Z,94663.16
2022-11-08T02:51:07.900Z,94653.63
2022-11-08T02:53:34.530Z,94656.25
2022-11-08T02:56:01.062Z,94655.53
2022-11-08T02:58:28.148Z,94649.34
2022-11-08T03:00:54.849Z,94649.75
2022-11-08T03:03:21.459Z,94643.84
2022-11-08T03:05:48.431Z,94642.13
2022-11-08T03:08:16.903Z,94650.44
2022-11-08T03:10:43.793Z,94639.00
2022-11-08T03:13:10.446Z,94644.66
2022-11-08T03:15:37.028Z,94638.28
2022-11-08T03:18:03.709Z,94626.88
2022-11-08T03:20:33.061Z,94637.03
2022-11-08T03:23:06.508Z,94625.84
2022-11-08T03:25:34.014Z,94623.19
2022-11-08T03:28:08.645Z,94620.59
2022-11-08T03:30:35.808Z,94621.03
2022-11-08T03:33:02.609Z,94619.59
2022-11-08T03:35:29.213Z,94618.13
2022-11-08T03:37:57.484Z,94620.75
2022-11-08T03:40:25.007Z,94629.47
2022-11-08T03:42:51.519Z,94628.75
2022-11-08T03:45:18.542Z,94626.34
2022-11-08T03:47:47.112Z,94615.47
2022-11-08T03:50:15.193Z,94622.31
2022-11-08T03:52:43.172Z,94623.88
2022-11-08T03:55:10.951Z,94616.06
2022-11-08T03:57:38.316Z,94617.25
2022-11-08T04:00:06.404Z,94609.44
2022-11-08T04:02:33.294Z,94605.13
2022-11-08T04:05:02.832Z,94610.09
2022-11-08T04:07:29.619Z,94611.47
2022-11-08T04:09:56.137Z,94617.63
2022-11-08T04:12:47.441Z,94617.16
2022-11-08T04:15:16.192Z,94616.16
2022-11-08T04:18:02.449Z,94608.06
2022-11-08T04:20:48.079Z,94605.94
2022-11-08T04:23:15.998Z,94609.69
2022-11-08T04:25:43.193Z,94611.31
2022-11-08T04:28:12.830Z,94611.06
2022-11-08T04:30:39.416Z,94610.50
2022-11-08T04:33:07.047Z,94615.72
2022-11-08T04:35:33.843Z,94621.81
2022-11-08T04:38:01.726Z,94608.50
2022-11-08T04:40:30.733Z,94604.47
2022-11-08T04:42:57.267Z,94607.81
2022-11-08T04:45:24.045Z,94594.53
2022-11-08T04:47:50.556Z,94600.16
2022-11-08T04:50:17.190Z,94588.31
2022-11-08T04:52:43.953Z,94587.34
2022-11-08T04:55:10.496Z,94585.88
2022-11-08T04:57:37.039Z,94584.16
2022-11-08T05:00:04.391Z,94604.03
2022-11-08T05:02:31.110Z,94582.47
2022-11-08T05:04:57.882Z,94586.97
2022-11-08T05:07:24.517Z,94582.91
2022-11-08T05:09:51.101Z,94580.03
2022-11-08T05:12:17.640Z,94578.59
2022-11-08T05:14:44.277Z,94575.69
2022-11-08T05:17:10.810Z,94573.19
2022-11-08T05:19:55.958Z,94579.63
2022-11-08T05:22:41.113Z,94581.28
2022-11-08T05:25:08.116Z,94579.56
2022-11-08T05:27:35.197Z,94576.69
2022-11-08T05:30:02.247Z,94574.09
2022-11-08T05:32:28.964Z,94579.28
2022-11-08T05:34:55.918Z,94575.69
2022-11-08T05:37:22.696Z,94580.19
2022-11-08T05:39:49.397Z,94577.34
2022-11-08T05:42:15.975Z,94579.66
2022-11-08T05:44:42.511Z,94582.69
2022-11-08T05:47:09.152Z,94568.41
2022-11-08T05:49:35.665Z,94579.09
2022-11-08T05:52:02.515Z,94571.72
2022-11-08T05:54:29.273Z,94570.28
2022-11-08T05:56:55.799Z,94568.13
2022-11-08T05:59:22.498Z,94572.63
2022-11-08T06:01:49.196Z,94575.66
2022-11-08T06:04:15.776Z,94572.78
2022-11-08T06:06:42.632Z,94571.38
2022-11-08T06:09:09.209Z,94571.38
2022-11-08T06:11:35.775Z,94575.13
2022-11-08T06:14:02.280Z,94573.69
2022-11-08T06:16:29.509Z,94571.94
2022-11-08T06:18:56.325Z,94570.53
2022-11-08T06:21:22.990Z,94560.75
2022-11-08T06:23:53.516Z,94560.75
2022-11-08T06:26:21.757Z,94564.03
2022-11-08T06:28:48.291Z,94564.28
2022-11-08T06:31:15.014Z,94559.41
2022-11-08T06:33:41.554Z,94566.91
2022-11-08T06:36:08.428Z,94567.34
2022-11-08T06:38:35.148Z,94571.16
2022-11-08T06:41:02.371Z,94572.31
2022-11-08T06:43:29.087Z,94569.69
2022-11-08T06:46:00.260Z,94571.31
2022-11-08T06:48:29.912Z,94577.22
2022-11-08T06:51:01.411Z,94576.22
2022-11-08T06:53:27.956Z,94574.81
2022-11-08T06:55:55.034Z,94580.72
2022-11-08T06:58:21.632Z,94575.53
2022-11-08T07:00:48.166Z,94578.84
2022-11-08T07:03:17.282Z,94579.56
2022-11-08T07:05:44.003Z,94574.81
2022-11-08T07:08:10.585Z,94585.94
2022-11-08T07:10:37.637Z,94586.53
2022-11-08T07:13:07.656Z,94583.03
2022-11-08T07:15:35.396Z,94588.25
2022-11-08T07:18:15.770Z,94587.34
2022-11-08T07:20:43.456Z,94583.19
2022-11-08T07:23:11.348Z,94587.22
2022-11-08T07:25:38.221Z,94582.72
2022-11-08T07:28:07.333Z,94584.19
2022-11-08T07:30:35.436Z,94572.84
2022-11-08T07:33:04.951Z,94576.91
2022-11-08T07:35:32.551Z,94573.13
2022-11-08T07:37:59.127Z,94575.56
2022-11-08T07:40:25.713Z,94577.44
2022-11-08T07:45:39.359Z,94575.66
2022-11-08T07:48:11.386Z,94581.41
2022-11-08T07:50:38.730Z,94585.00
2022-11-08T07:53:05.476Z,94576.78
2022-11-08T07:55:32.009Z,94575.88
2022-11-08T07:58:02.119Z,94569.78
2022-11-08T08:00:33.249Z,94575.97
2022-11-08T08:03:01.141Z,94577.69
2022-11-08T08:05:29.324Z,94578.25
2022-11-08T08:08:02.135Z,94578.06
2022-11-08T08:10:30.010Z,94574.56
2022-11-08T08:12:57.174Z,94571.06
2022-11-08T08:15:25.061Z,94572.78
2022-11-08T08:17:52.180Z,94575.19
2022-11-08T08:20:19.495Z,94572.41
2022-11-08T08:22:51.308Z,94570.34
2022-11-08T08:25:18.781Z,94564.22
2022-11-08T08:27:56.435Z,94570.25
2022-11-08T08:30:24.336Z,94562.97
2022-11-08T08:33:08.322Z,94552.81
2022-11-08T08:35:39.669Z,94568.97
2022-11-08T08:38:07.287Z,94570.25
2022-11-08T08:40:34.457Z,94572.94
2022-11-08T08:43:03.312Z,94562.50
2022-11-08T08:45:30.964Z,94563.34
2022-11-08T08:47:58.483Z,94562.66
2022-11-08T08:50:31.063Z,94571.31
2022-11-08T08:53:02.798Z,94573.25
2022-11-08T08:55:29.560Z,94568.59
2022-11-08T08:57:56.304Z,94577.91
2022-11-08T09:03:11.534Z,94565.19
2022-11-08T09:05:41.839Z,94568.06
2022-11-08T09:08:08.421Z,94567.72
2022-11-08T09:10:35.345Z,94562.84
2022-11-08T09:13:03.281Z,94562.44
2022-11-08T09:15:29.962Z,94561.59
2022-11-08T09:17:57.711Z,94556.25
2022-11-08T09:20:25.716Z,94558.72
2022-11-08T09:22:52.349Z,94567.34
2022-11-08T09:25:19.129Z,94561.47
2022-11-08T09:27:45.675Z,94569.38
2022-11-08T09:30:12.269Z,94569.47
2022-11-08T09:32:59.570Z,94572.84
2022-11-08T09:35:25.372Z,94580.03
2022-11-08T09:37:55.610Z,94577.47
2022-11-08T09:40:31.427Z,94578.75
2022-11-08T09:43:16.641Z,94580.25
2022-11-08T09:45:47.964Z,94576.50
2022-11-08T09:48:22.251Z,94580.81
2022-11-08T09:50:52.113Z,94582.03
2022-11-08T09:53:22.799Z,94581.13
2022-11-08T09:56:21.672Z,94588.34
2022-11-08T09:59:18.987Z,94594.31
2022-11-08T10:01:45.615Z,94583.22
2022-11-08T10:04:16.285Z,94584.50
2022-11-08T10:06:49.908Z,94582.44
2022-11-08T10:09:38.311Z,94586.78
2022-11-08T10:12:07.884Z,94585.16
2022-11-08T10:14:52.325Z,94581.66
2022-11-08T10:17:44.318Z,94582.88
2022-11-08T10:20:47.910Z,94573.41
2022-11-08T10:23:28.591Z,94570.56
2022-11-08T10:26:05.653Z,94570.88
2022-11-08T10:28:44.534Z,94575.31
2022-11-08T10:31:15.215Z,94576.88
2022-11-08T10:33:53.867Z,94579.56
2022-11-08T10:36:30.557Z,94579.06
2022-11-08T10:39:03.154Z,94567.88
2022-11-08T10:41:52.689Z,94573.81
2022-11-08T10:44:22.153Z,94574.53
2022-11-08T10:46:51.167Z,94572.63
2022-11-08T10:49:24.616Z,94572.16
2022-11-08T10:51:54.360Z,94570.97
2022-11-08T10:54:56.141Z,94563.78
2022-11-08T10:57:24.233Z,94564.97
2022-11-08T10:59:51.488Z,94569.72
2022-11-08T11:02:28.320Z,94576.38
2022-11-08T11:05:19.534Z,94589.97
2022-11-08T11:07:56.185Z,94583.28
2022-11-08T11:10:29.320Z,94584.22
2022-11-08T11:13:20.268Z,94582.50
2022-11-08T11:15:51.148Z,94579.13
2022-11-08T11:18:26.827Z,94579.59
2022-11-08T11:21:06.392Z,94588.13
2022-11-08T11:23:54.172Z,94579.31
2022-11-08T11:26:28.989Z,94583.81
2022-11-08T11:28:59.203Z,94582.59
2022-11-08T11:31:25.855Z,94583.94
2022-11-08T11:33:52.402Z,94584.38
2022-11-08T11:36:22.368Z,94582.47
2022-11-08T11:39:09.526Z,94574.56
2022-11-08T11:41:49.271Z,94570.16
2022-11-08T11:44:30.001Z,94578.03
2022-11-08T11:47:17.418Z,94576.28
2022-11-08T11:49:45.361Z,94578.31
2022-11-08T11:52:19.275Z,94579.03
2022-11-08T11:54:49.647Z,94591.19
2022-11-08T11:58:04.112Z,94587.38
2022-11-08T12:00:32.035Z,94591.84
2022-11-08T12:03:18.787Z,94592.41
2022-11-08T12:06:04.785Z,94600.03
2022-11-08T12:08:43.038Z,94598.28
2022-11-08T12:11:33.911Z,94595.16
2022-11-08T12:14:29.828Z,94600.16
2022-11-08T12:17:05.354Z,94596.03
2022-11-08T12:19:44.691Z,94595.75
2022-11-08T12:22:20.161Z,94589.03
2022-11-08T12:25:13.488Z,94585.63
2022-11-08T12:28:00.678Z,94586.28
2022-11-08T12:30:56.839Z,94585.34
2022-11-08T12:33:26.440Z,94581.69
2022-11-08T12:36:23.345Z,94572.81
2022-11-08T12:38:58.864Z,94566.47
2022-11-08T12:41:45.772Z,94566.56
2022-11-08T12:44:39.847Z,94561.25
2022-11-08T12:47:26.644Z,94551.78
2022-11-08T12:50:11.639Z,94554.06
2022-11-08T12:52:47.151Z,94555.19
2022-11-08T12:55:34.576Z,94555.50
2022-11-08T12:58:06.615Z,94554.19
2022-11-08T13:00:35.863Z,94553.72
2022-11-08T13:03:32.362Z,94560.31
2022-11-08T13:06:41.968Z,94555.09
2022-11-08T13:09:17.261Z,94555.69
2022-11-08T13:11:57.483Z,94557.53
2022-11-08T13:14:25.063Z,94551.47
2022-11-08T13:17:28.055Z,94549.78
2022-11-08T13:20:00.683Z,94548.66
2022-11-08T13:22:30.227Z,94547.97
2022-11-08T13:25:12.273Z,94542.53
2022-11-08T13:27:40.495Z,94543.53
2022-11-08T13:30:16.214Z,94541.41
2022-11-08T13:32:42.726Z,94541.69
2022-11-08T13:35:31.442Z,94552.03
2022-11-08T13:38:43.117Z,94550.91
2022-11-08T13:41:20.345Z,94548.28
2022-11-08T13:43:48.230Z,94553.75
2022-11-08T13:46:26.003Z,94546.34
2022-11-08T13:48:58.468Z,94556.81
2022-11-08T13:51:32.805Z,94546.97
2022-11-08T13:54:21.076Z,94555.38
2022-11-08T13:56:57.788Z,94551.34
2022-11-08T13:59:30.571Z,94542.50
2022-11-08T14:02:04.494Z,94542.72
2022-11-08T14:04:38.477Z,94547.47
2022-11-08T14:07:25.346Z,94534.28
2022-11-08T14:10:18.751Z,94540.97
2022-11-08T14:13:18.114Z,94538.06
2022-11-08T14:16:03.079Z,94535.13
2022-11-08T14:18:32.737Z,94533.69
2022-11-08T14:20:59.549Z,94530.78
2022-11-08T14:23:32.501Z,94525.38
2022-11-08T14:26:02.930Z,94521.81
2022-11-08T14:28:30.765Z,94524.47
2022-11-08T14:31:00.010Z,94521.34
2022-11-08T14:33:31.284Z,94522.03
2022-11-08T14:36:02.889Z,94524.69
2022-11-08T14:38:32.360Z,94528.22
2022-11-08T14:41:01.444Z,94525.91
2022-11-08T14:43:29.227Z,94535.44
2022-11-08T14:45:58.238Z,94536.34
2022-11-08T14:48:28.943Z,94539.47
2022-11-08T14:51:03.234Z,94534.72
2022-11-08T14:53:44.260Z,94533.31
2022-11-08T14:56:22.216Z,94539.09
2022-11-08T14:58:50.460Z,94535.38
2022-11-08T15:01:21.036Z,94530.06
2022-11-08T15:03:56.049Z,94525.41
2022-11-08T15:06:31.198Z,94532.47
2022-11-08T15:08:58.605Z,94528.25
2022-11-08T15:11:34.078Z,94519.91
2022-11-08T15:14:06.429Z,94521.63
2022-11-08T15:16:51.151Z,94524.06
2022-11-08T15:19:29.563Z,94519.28
2022-11-08T15:22:00.624Z,94521.53
2022-11-08T15:24:33.371Z,94524.69
2022-11-08T15:27:05.924Z,94517.78
2022-11-08T15:29:49.883Z,94517.59
2022-11-08T15:32:17.734Z,94522.44
2022-11-08T15:34:45.627Z,94525.16
2022-11-08T15:37:29.064Z,94524.94
2022-11-08T15:39:56.519Z,94517.34
2022-11-08T15:42:23.206Z,94521.72
2022-11-08T15:45:06.506Z,94516.22
2022-11-08T15:47:37.175Z,94514.59
2022-11-08T15:50:12.691Z,94515.59
2022-11-08T15:52:44.455Z,94518.00
2022-11-08T15:55:32.404Z,94516.41
2022-11-08T15:58:00.447Z,94506.81
2022-11-08T16:00:41.747Z,94512.41
2022-11-08T16:03:16.792Z,94504.09
2022-11-08T16:05:46.606Z,94509.63
2022-11-08T16:11:24.467Z,94516.19
2022-11-08T16:14:01.533Z,94514.59
2022-11-08T16:16:37.374Z,94520.13
2022-11-08T16:19:25.483Z,94520.44
2022-11-08T16:22:01.483Z,94518.09
2022-11-08T16:24:36.471Z,94508.34
2022-11-08T16:27:14.810Z,94512.94
2022-11-08T16:29:59.992Z,94513.91
2022-11-08T16:32:36.835Z,94504.88
2022-11-08T16:35:12.589Z,94509.69
2022-11-08T16:37:57.856Z,94504.22
2022-11-08T16:40:29.656Z,94503.81
2022-11-08T16:43:06.725Z,94506.94
2022-11-08T16:46:04.343Z,94507.91
2022-11-08T16:48:43.730Z,94508.94
2022-11-08T16:51:29.022Z,94509.19
2022-11-08T16:54:01.047Z,94515.50
2022-11-08T16:56:37.025Z,94511.22
2022-11-08T16:59:14.921Z,94506.31
2022-11-08T17:01:51.238Z,94522.50
2022-11-08T17:04:25.630Z,94520.91
2022-11-08T17:07:16.678Z,94521.88
2022-11-08T17:09:50.821Z,94521.66
2022-11-08T17:12:28.034Z,94528.44
2022-11-08T17:15:06.028Z,94526.28
2022-11-08T17:17:40.859Z,94524.66
2022-11-08T17:20:16.707Z,94529.69
2022-11-08T17:22:53.989Z,94527.53
2022-11-08T17:25:25.693Z,94531.91
2022-11-08T17:28:02.722Z,94530.22
2022-11-08T17:30:44.798Z,94533.38
2022-11-08T17:33:20.474Z,94543.00
2022-11-08T17:35:48.883Z,94542.56
2022-11-08T17:38:21.126Z,94538.47
2022-11-08T17:40:56.176Z,94548.31
2022-11-08T17:43:44.311Z,94541.16
2022-11-08T17:46:20.329Z,94546.94
2022-11-08T17:48:48.430Z,94549.34
2022-11-08T17:51:16.223Z,94543.84
2022-11-08T17:53:51.764Z,94538.13
2022-11-08T17:56:32.122Z,94540.28
2022-11-08T17:59:13.814Z,94540.06
2022-11-08T18:01:52.317Z,94533.19
2022-11-08T18:04:23.072Z,94536.28
2022-11-08T18:06:57.767Z,94529.59
2022-11-08T18:09:29.559Z,94541.81
2022-11-08T18:12:13.595Z,94534.22
2022-11-08T18:14:40.726Z,94539.25
2022-11-08T18:17:09.328Z,94541.94
2022-11-08T18:19:47.129Z,94536.69
2022-11-08T18:22:24.807Z,94536.69
2022-11-08T18:25:02.918Z,94544.38
2022-11-08T18:27:36.469Z,94538.97
2022-11-08T18:30:09.512Z,94538.38
2022-11-08T18:32:43.328Z,94538.47
2022-11-08T18:35:25.532Z,94541.19
2022-11-08T18:38:01.487Z,94545.09
2022-11-08T18:40:36.215Z,94539.19
2022-11-08T18:43:03.556Z,94552.81
2022-11-08T18:45:36.440Z,94539.44
2022-11-08T18:48:08.942Z,94544.00
2022-11-08T18:50:53.693Z,94543.81
2022-11-08T18:53:32.875Z,94545.25
2022-11-08T18:56:16.547Z,94542.41
2022-11-08T18:58:50.986Z,94546.72
2022-11-08T19:01:28.202Z,94548.91
2022-11-08T19:04:04.931Z,94555.88
2022-11-08T19:06:37.781Z,94558.97
2022-11-08T19:09:11.945Z,94549.94
2022-11-08T19:11:43.278Z,94549.50
2022-11-08T19:17:08.018Z,94543.34
2022-11-08T19:19:38.008Z,94549.78
2022-11-08T19:22:05.369Z,94543.56
2022-11-08T19:24:39.289Z,94541.94
2022-11-08T19:27:20.146Z,94545.31
2022-11-08T19:29:50.674Z,94541.25
2022-11-08T19:32:21.307Z,94547.47
2022-11-08T19:34:51.556Z,94540.53
2022-11-08T19:37:26.167Z,94538.91
2022-11-08T19:39:58.359Z,94534.41
2022-11-08T19:42:36.326Z,94534.19
2022-11-08T19:45:10.966Z,94530.41
2022-11-08T19:47:45.168Z,94528.00
2022-11-08T19:50:13.035Z,94533.53
2022-11-08T19:52:53.001Z,94533.78
2022-11-08T19:55:30.812Z,94527.56
2022-11-08T19:58:05.931Z,94522.81
2022-11-08T20:00:39.985Z,94524.03
2022-11-08T20:03:11.488Z,94528.59
2022-11-08T20:05:41.943Z,94520.00
2022-11-08T20:08:17.130Z,94518.59
2022-11-08T20:10:47.617Z,94524.53
2022-11-08T20:13:23.011Z,94521.69
2022-11-08T20:15:51.742Z,94525.75
2022-11-08T20:18:22.152Z,94521.72
2022-11-08T20:20:49.813Z,94517.47
2022-11-08T20:23:28.726Z,94530.09
2022-11-08T20:26:14.932Z,94529.34
2022-11-08T20:28:55.194Z,94535.34
2022-11-08T20:31:24.234Z,94532.28
2022-11-08T20:33:54.715Z,94533.94
2022-11-08T20:36:26.159Z,94529.19
2022-11-08T20:39:07.019Z,94531.34
2022-11-08T20:41:41.859Z,94530.88
2022-11-08T20:44:23.556Z,94529.94
2022-11-08T20:46:53.472Z,94532.31
2022-11-08T20:49:29.011Z,94539.50
2022-11-08T20:52:04.763Z,94533.28
2022-11-08T20:54:43.659Z,94540.69
2022-11-08T20:57:21.519Z,94539.03
2022-11-08T20:59:54.378Z,94533.53
2022-11-08T21:02:24.278Z,94534.50
2022-11-08T21:04:58.724Z,94534.03
2022-11-08T21:08:01.785Z,94534.72
2022-11-08T21:10:42.712Z,94528.28
2022-11-08T21:13:11.406Z,94531.19
2022-11-08T21:15:41.598Z,94531.16
2022-11-08T21:18:14.484Z,94537.81
2022-11-08T21:20:45.333Z,94534.00
2022-11-08T21:23:28.235Z,94536.88
2022-11-08T21:26:13.834Z,94529.25
2022-11-08T21:28:51.920Z,94527.38
2022-11-08T21:31:25.623Z,94526.63
2022-11-08T21:33:55.643Z,94531.84
2022-11-08T21:36:27.409Z,94529.72
2022-11-08T21:39:05.814Z,94526.84
2022-11-08T21:41:38.287Z,94528.28
2022-11-08T21:44:16.506Z,94529.47
2022-11-08T21:46:58.087Z,94526.63
2022-11-08T21:49:31.279Z,94530.66
2022-11-08T21:52:04.682Z,94527.81
2022-11-08T21:54:51.922Z,94524.44
2022-11-08T21:57:29.092Z,94517.75
2022-11-08T22:00:16.508Z,94519.19
2022-11-08T22:02:48.779Z,94520.84
2022-11-08T22:05:18.775Z,94520.84
2022-11-08T22:08:06.330Z,94517.03
2022-11-08T22:10:40.242Z,94523.94
2022-11-08T22:13:18.852Z,94528.69
2022-11-08T22:16:00.465Z,94529.38
2022-11-08T22:18:50.725Z,94526.53
2022-11-08T22:21:45.456Z,94513.19
2022-11-08T22:24:34.493Z,94520.31
2022-11-08T22:27:05.132Z,94514.88
2022-11-08T22:29:57.065Z,94518.66
2022-11-08T22:32:27.404Z,94512.44
2022-11-08T22:34:57.127Z,94514.38
2022-11-08T22:37:32.947Z,94519.59
2022-11-08T22:40:07.573Z,94514.38
2022-11-08T22:42:47.933Z,94512.66
2022-11-08T22:45:26.263Z,94512.66
2022-11-08T22:47:56.282Z,94507.44
2022-11-08T22:50:26.510Z,94503.81
2022-11-08T22:53:04.391Z,94514.28
2022-11-08T22:55:39.779Z,94507.84
2022-11-08T22:58:20.657Z,94503.75
2022-11-08T23:00:50.880Z,94507.56
2022-11-08T23:03:18.694Z,94508.53
2022-11-08T23:06:17.828Z,94504.72
2022-11-08T23:08:59.895Z,94512.31
2022-11-08T23:12:17.438Z,94508.75
2022-11-08T23:15:03.213Z,94499.25
2022-11-08T23:17:35.963Z,94493.00
2022-11-08T23:20:25.366Z,94487.56
2022-11-08T23:23:21.479Z,94496.56
2022-11-08T23:25:57.611Z,94503.44
2022-11-08T23:28:52.763Z,94501.53
2022-11-08T23:31:53.503Z,94507.22
2022-11-08T23:34:25.875Z,94510.53
2022-11-08T23:36:58.655Z,94512.69
2022-11-08T23:39:33.713Z,94511.72
2022-11-08T23:42:23.238Z,94509.31
2022-11-08T23:45:07.564Z,94509.31
2022-11-08T23:47:46.855Z,94508.31
2022-11-08T23:50:18.026Z,94508.13
2022-11-08T23:52:50.577Z,94499.28
2022-11-08T23:55:23.158Z,94507.59
2022-11-08T23:58:06.469Z,94509.03
